Time;durP1;ratioP1;P1;durP2;ratioP2;P2;SDS_P1;SDS_P2;PMS_P1;PMS_P2;Temp;Humidity;BMP_temperature;BMP_pressure;BME280_temperature;BME280_humidity;BME280_pressure;Samples;Min_cycle;Max_cycle;Signal;HPM_P1;HPM_P2
2021/10/26 00:00:45;;;;;;;21.03;15.57;;;11.90;99.90;;;;;;5036803;28;20233;-50
2021/10/26 00:03:12;;;;;;;22.90;15.17;;;11.90;99.90;;;;;;5037981;28;20690;-51
2021/10/26 00:05:39;;;;;;;24.70;16.87;;;11.90;99.90;;;;;;5033842;28;20222;-51
2021/10/26 00:08:06;;;;;;;23.07;15.57;;;11.90;99.90;;;;;;5034897;28;20262;-51
2021/10/26 00:10:33;;;;;;;27.63;16.67;;;11.90;99.90;;;;;;5038087;28;20300;-51
2021/10/26 00:13:00;;;;;;;22.87;15.50;;;11.90;99.90;;;;;;5037890;28;20286;-52
2021/10/26 00:15:27;;;;;;;25.37;17.00;;;11.90;99.90;;;;;;5036557;28;20232;-52
2021/10/26 00:17:54;;;;;;;24.07;17.37;;;12.00;99.90;;;;;;5036293;28;20204;-53
2021/10/26 00:20:21;;;;;;;20.70;16.37;;;12.00;99.90;;;;;;5036503;28;20212;-50
2021/10/26 00:22:48;;;;;;;26.07;16.83;;;12.00;99.90;;;;;;5036587;28;20461;-52
2021/10/26 00:25:15;;;;;;;29.63;17.10;;;11.90;99.90;;;;;;5033923;28;20640;-52
2021/10/26 00:27:42;;;;;;;29.90;17.67;;;11.90;99.90;;;;;;5036841;28;20573;-50
2021/10/26 00:30:09;;;;;;;25.67;17.30;;;11.90;99.90;;;;;;5035223;28;20241;-53
2021/10/26 00:32:36;;;;;;;26.83;17.47;;;11.90;99.90;;;;;;5034993;28;20202;-50
2021/10/26 00:35:04;;;;;;;25.83;17.43;;;11.90;99.90;;;;;;5034521;28;20199;-50
2021/10/26 00:37:31;;;;;;;29.37;17.80;;;11.90;99.90;;;;;;5041326;28;20310;-50
2021/10/26 00:39:58;;;;;;;26.57;17.53;;;12.00;99.90;;;;;;5043205;28;20409;-51
2021/10/26 00:42:25;;;;;;;22.43;16.57;;;12.00;99.90;;;;;;5038440;28;20237;-52
2021/10/26 00:44:52;;;;;;;26.60;16.47;;;11.90;99.90;;;;;;5044989;28;20204;-51
2021/10/26 00:47:19;;;;;;;25.93;16.50;;;12.00;99.90;;;;;;5043361;28;20216;-50
2021/10/26 00:49:46;;;;;;;27.37;18.43;;;12.00;99.90;;;;;;5037987;28;20258;-50
2021/10/26 00:52:13;;;;;;;25.13;17.17;;;12.00;99.90;;;;;;5044500;28;20285;-50
2021/10/26 00:54:40;;;;;;;30.43;16.67;;;12.00;99.90;;;;;;5039901;28;20208;-50
2021/10/26 00:57:08;;;;;;;26.83;17.70;;;12.00;99.90;;;;;;5044708;28;20220;-50
2021/10/26 00:59:35;;;;;;;27.63;17.27;;;11.90;99.90;;;;;;5040484;28;20204;-50
2021/10/26 01:02:02;;;;;;;28.03;17.40;;;12.00;99.90;;;;;;5047731;28;20293;-52
2021/10/26 01:04:29;;;;;;;27.57;17.00;;;12.00;99.90;;;;;;5046713;28;20229;-50
2021/10/26 01:06:57;;;;;;;26.53;17.23;;;11.90;99.90;;;;;;5041748;28;20225;-51
2021/10/26 01:09:24;;;;;;;24.13;17.23;;;11.90;99.90;;;;;;5044056;28;20235;-51
2021/10/26 01:11:51;;;;;;;24.57;17.10;;;12.00;99.90;;;;;;5042058;28;20230;-51
2021/10/26 01:14:19;;;;;;;27.87;17.57;;;12.00;99.90;;;;;;5042014;28;20320;-51
2021/10/26 01:16:46;;;;;;;27.40;16.60;;;12.00;99.90;;;;;;5041924;28;20227;-52
2021/10/26 01:19:13;;;;;;;28.43;18.50;;;12.00;99.90;;;;;;5042046;28;20208;-51
2021/10/26 01:21:41;;;;;;;23.03;16.00;;;12.10;99.90;;;;;;5048395;28;20214;-50
2021/10/26 01:24:08;;;;;;;30.43;17.73;;;12.10;99.90;;;;;;5045495;28;20294;-52
2021/10/26 01:26:35;;;;;;;24.70;17.23;;;12.10;99.90;;;;;;5044966;28;20223;-51
2021/10/26 01:29:02;;;;;;;25.87;17.57;;;12.10;99.90;;;;;;5045495;28;20311;-51
2021/10/26 01:31:31;;;;;;;24.80;17.73;;;12.00;99.90;;;;;;5045754;28;20254;-52
2021/10/26 01:33:59;;;;;;;28.50;18.53;;;12.00;99.90;;;;;;5044017;28;20521;-52
2021/10/26 01:36:26;;;;;;;26.20;18.50;;;12.10;99.90;;;;;;5048519;28;20246;-52
2021/10/26 01:38:53;;;;;;;29.33;18.23;;;12.10;99.90;;;;;;5046304;28;20199;-52
2021/10/26 01:41:21;;;;;;;26.87;18.10;;;12.10;99.90;;;;;;5047480;28;20203;-53
2021/10/26 01:43:53;;;;;;;30.00;19.10;;;12.10;99.90;;;;;;5047150;28;20198;-52
2021/10/26 01:46:21;;;;;;;25.27;16.73;;;12.20;99.90;;;;;;5046921;28;20206;-53
2021/10/26 01:48:48;;;;;;;29.47;18.10;;;12.10;99.90;;;;;;5044407;28;20224;-54
2021/10/26 01:51:15;;;;;;;26.07;17.60;;;12.10;99.90;;;;;;5043672;28;20207;-51
2021/10/26 01:53:42;;;;;;;26.30;18.87;;;12.10;99.90;;;;;;5048350;28;20628;-52
2021/10/26 01:56:09;;;;;;;28.73;19.03;;;12.10;99.90;;;;;;5043097;28;20195;-53
2021/10/26 01:58:36;;;;;;;27.27;18.50;;;12.20;99.90;;;;;;5045064;28;20231;-52
2021/10/26 02:01:03;;;;;;;26.00;16.73;;;12.20;99.90;;;;;;5042906;28;20199;-51
2021/10/26 02:03:31;;;;;;;25.90;17.07;;;12.10;99.90;;;;;;5046694;28;20203;-51
2021/10/26 02:05:58;;;;;;;30.33;17.47;;;12.10;99.90;;;;;;5042328;28;20361;-53
2021/10/26 02:08:25;;;;;;;25.87;18.00;;;12.10;99.90;;;;;;5044359;28;20298;-53
2021/10/26 02:10:52;;;;;;;27.13;17.97;;;12.00;99.90;;;;;;5045458;28;20547;-53
2021/10/26 02:13:19;;;;;;;24.70;17.13;;;12.00;99.90;;;;;;5046976;28;20227;-50
2021/10/26 02:15:46;;;;;;;25.80;18.00;;;12.00;99.90;;;;;;5045574;28;20651;-50
2021/10/26 02:18:13;;;;;;;26.80;16.57;;;12.00;99.90;;;;;;5046818;28;20204;-50
2021/10/26 02:20:40;;;;;;;29.50;17.90;;;12.00;99.90;;;;;;5043640;28;20199;-50
2021/10/26 02:23:07;;;;;;;23.03;16.57;;;11.90;99.90;;;;;;5046567;28;20254;-50
2021/10/26 02:25:34;;;;;;;28.47;18.03;;;11.80;99.90;;;;;;5045025;28;20237;-50
2021/10/26 02:28:01;;;;;;;29.30;18.30;;;11.80;99.90;;;;;;5046951;28;20748;-50
2021/10/26 02:30:27;;;;;;;32.07;17.43;;;11.80;99.90;;;;;;5041096;28;20234;-50
2021/10/26 02:32:54;;;;;;;27.67;17.43;;;11.90;99.90;;;;;;5045961;28;20200;-50
2021/10/26 02:35:21;;;;;;;27.17;17.27;;;11.80;99.90;;;;;;5044405;28;20196;-50
2021/10/26 02:37:48;;;;;;;32.23;18.27;;;11.80;99.90;;;;;;5039019;28;20225;-50
2021/10/26 02:40:15;;;;;;;30.67;17.63;;;11.80;99.90;;;;;;5041904;28;20631;-50
2021/10/26 02:42:42;;;;;;;26.40;17.87;;;11.90;99.90;;;;;;5044677;28;20201;-50
2021/10/26 02:45:09;;;;;;;28.93;16.67;;;11.90;99.90;;;;;;5048726;28;20742;-51
2021/10/26 02:47:37;;;;;;;30.97;19.43;;;11.80;99.90;;;;;;5043949;28;20811;-50
2021/10/26 02:50:05;;;;;;;27.93;17.77;;;11.80;99.90;;;;;;5043164;28;20199;-50
2021/10/26 02:52:33;;;;;;;26.37;19.43;;;11.70;99.90;;;;;;5040680;28;20203;-50
2021/10/26 02:55:00;;;;;;;25.97;18.03;;;11.70;99.90;;;;;;5044134;28;20203;-50
2021/10/26 02:57:27;;;;;;;29.73;19.33;;;11.70;99.90;;;;;;5045358;28;20290;-50
2021/10/26 02:59:54;;;;;;;30.97;19.10;;;11.70;99.90;;;;;;5040985;28;20612;-50
2021/10/26 03:02:21;;;;;;;27.90;18.37;;;11.70;99.90;;;;;;5045215;28;20250;-50
2021/10/26 03:04:48;;;;;;;30.70;18.63;;;11.70;99.90;;;;;;5044812;28;20264;-50
2021/10/26 03:07:16;;;;;;;29.37;18.30;;;11.60;99.90;;;;;;5041717;28;20215;-51
2021/10/26 03:09:46;;;;;;;26.30;17.67;;;11.60;99.90;;;;;;5044215;28;20233;-50
2021/10/26 03:12:12;;;;;;;33.43;19.60;;;11.60;99.90;;;;;;5045635;28;20223;-50
2021/10/26 03:14:39;;;;;;;31.83;18.00;;;11.60;99.90;;;;;;5044331;28;20263;-50
2021/10/26 03:17:06;;;;;;;27.50;18.43;;;11.60;99.90;;;;;;5043300;28;20203;-50
2021/10/26 03:19:33;;;;;;;28.90;18.23;;;11.50;99.90;;;;;;5048539;28;20199;-50
2021/10/26 03:22:00;;;;;;;31.80;18.43;;;11.60;99.90;;;;;;5046509;28;20234;-51
2021/10/26 03:24:27;;;;;;;30.33;18.43;;;11.60;99.90;;;;;;5042770;28;20211;-50
2021/10/26 03:26:55;;;;;;;31.73;17.53;;;11.50;99.90;;;;;;5044078;28;20233;-50
2021/10/26 03:29:22;;;;;;;29.20;18.70;;;11.50;99.90;;;;;;5042615;28;20211;-50
2021/10/26 03:31:53;;;;;;;29.67;18.00;;;11.50;99.90;;;;;;5045530;28;20186;-53
2021/10/26 03:34:20;;;;;;;28.50;18.33;;;11.60;99.90;;;;;;5044848;28;20867;-50
2021/10/26 03:36:47;;;;;;;28.33;18.03;;;11.60;99.90;;;;;;5047378;28;20251;-50
2021/10/26 03:39:14;;;;;;;28.30;17.03;;;11.50;99.90;;;;;;5044468;28;20239;-50
2021/10/26 03:41:42;;;;;;;29.53;17.23;;;11.50;99.90;;;;;;5026154;28;20687;-50
2021/10/26 03:44:09;;;;;;;26.20;17.07;;;11.50;99.90;;;;;;5042263;28;20257;-50
2021/10/26 03:46:36;;;;;;;33.40;17.70;;;11.50;99.90;;;;;;5041355;28;20234;-50
2021/10/26 03:49:04;;;;;;;29.30;16.90;;;11.40;99.90;;;;;;5044307;28;20218;-50
2021/10/26 03:51:31;;;;;;;33.07;18.70;;;11.50;99.90;;;;;;5037816;28;20594;-50
2021/10/26 03:53:58;;;;;;;27.17;16.63;;;11.40;99.90;;;;;;5042580;28;20191;-50
2021/10/26 03:56:25;;;;;;;26.07;16.97;;;11.40;99.90;;;;;;5042608;28;20249;-50
2021/10/26 03:58:52;;;;;;;31.33;17.23;;;11.40;99.90;;;;;;5040836;28;20797;-50
2021/10/26 04:01:20;;;;;;;29.00;17.20;;;11.40;99.90;;;;;;5044362;28;20472;-50
2021/10/26 04:03:47;;;;;;;31.37;17.80;;;11.30;99.90;;;;;;5044499;28;20289;-50
2021/10/26 04:06:17;;;;;;;28.00;16.83;;;11.30;99.90;;;;;;5039841;28;20624;-51
2021/10/26 04:11:17;;;;;;;29.00;17.53;;;11.20;99.90;;;;;;5043264;28;20200;-50
2021/10/26 04:13:44;;;;;;;29.97;18.47;;;11.20;99.90;;;;;;5047276;28;20831;-50
2021/10/26 04:16:12;;;;;;;31.10;17.77;;;11.30;99.90;;;;;;5047688;28;20282;-50
2021/10/26 04:18:42;;;;;;;31.60;17.70;;;11.30;99.90;;;;;;5032676;28;20659;-50
2021/10/26 04:21:10;;;;;;;28.23;17.33;;;11.20;99.90;;;;;;5043861;28;20409;-50
2021/10/26 04:23:38;;;;;;;35.20;17.97;;;11.10;99.90;;;;;;5028299;28;20651;-50
2021/10/26 04:26:07;;;;;;;33.07;17.90;;;11.20;99.90;;;;;;5034138;28;20230;-50
2021/10/26 04:28:34;;;;;;;33.40;17.73;;;11.10;99.90;;;;;;5038023;28;20211;-50
2021/10/26 04:31:05;;;;;;;28.27;18.40;;;11.10;99.90;;;;;;5032843;28;20203;-50
2021/10/26 04:33:33;;;;;;;27.33;18.17;;;11.10;99.90;;;;;;5044210;28;20199;-50
2021/10/26 04:35:59;;;;;;;27.63;17.37;;;11.00;99.90;;;;;;5045371;28;20255;-51
2021/10/26 04:38:26;;;;;;;35.30;19.27;;;11.10;99.90;;;;;;5047767;28;20239;-50
2021/10/26 04:40:57;;;;;;;30.50;18.33;;;11.10;99.90;;;;;;5047423;28;20291;-50
2021/10/26 04:43:26;;;;;;;31.97;18.60;;;11.00;99.90;;;;;;5053848;28;20688;-50
2021/10/26 04:45:53;;;;;;;32.80;18.00;;;10.90;99.90;;;;;;5049351;28;20198;-50
2021/10/26 04:48:22;;;;;;;29.73;17.47;;;10.90;99.90;;;;;;5045391;28;20336;-50
2021/10/26 04:50:49;;;;;;;30.73;17.33;;;10.80;99.90;;;;;;5046188;28;20670;-50
2021/10/26 04:53:16;;;;;;;26.60;16.97;;;10.80;99.90;;;;;;5048343;28;20219;-50
2021/10/26 04:55:43;;;;;;;31.33;18.67;;;10.80;99.90;;;;;;5049865;28;20710;-50
2021/10/26 04:58:10;;;;;;;32.50;18.13;;;10.80;99.90;;;;;;5049378;28;20200;-50
2021/10/26 05:00:37;;;;;;;31.40;18.57;;;10.80;99.90;;;;;;5051395;28;20205;-50
2021/10/26 05:03:04;;;;;;;32.50;19.13;;;10.70;99.90;;;;;;5050971;28;20683;-50
2021/10/26 05:05:31;;;;;;;34.10;19.63;;;10.70;99.90;;;;;;5047954;28;20609;-50
2021/10/26 05:07:58;;;;;;;33.33;19.13;;;10.70;99.90;;;;;;5045647;28;20676;-50
2021/10/26 05:10:25;;;;;;;35.93;20.33;;;10.70;99.90;;;;;;5049416;28;20739;-50
2021/10/26 05:12:52;;;;;;;38.60;21.17;;;10.70;99.90;;;;;;5047931;28;20196;-51
2021/10/26 05:15:19;;;;;;;41.50;21.67;;;10.70;99.90;;;;;;5050595;28;20226;-50
2021/10/26 05:17:48;;;;;;;37.80;20.97;;;10.80;99.90;;;;;;5049737;28;20209;-50
2021/10/26 05:20:17;;;;;;;39.80;21.20;;;10.80;99.90;;;;;;5049113;28;20243;-50
2021/10/26 05:22:44;;;;;;;41.93;22.40;;;10.80;99.90;;;;;;5047522;28;20200;-50
2021/10/26 05:25:11;;;;;;;39.17;22.23;;;10.70;99.90;;;;;;5039752;28;20197;-50
2021/10/26 05:27:39;;;;;;;38.07;22.43;;;10.80;99.90;;;;;;5041956;28;20688;-50
2021/10/26 05:30:06;;;;;;;40.10;22.53;;;10.90;99.90;;;;;;5050147;28;20246;-50
2021/10/26 05:32:34;;;;;;;43.47;23.27;;;10.80;99.90;;;;;;5048988;28;20193;-50
2021/10/26 05:35:01;;;;;;;47.23;25.30;;;10.80;99.90;;;;;;5059497;28;20754;-50
2021/10/26 05:37:27;;;;;;;43.83;22.57;;;10.80;99.90;;;;;;5044418;28;20569;-50
2021/10/26 05:39:54;;;;;;;44.30;22.90;;;10.80;99.90;;;;;;5048527;28;20655;-50
2021/10/26 05:42:21;;;;;;;42.73;23.43;;;11.00;99.90;;;;;;5047732;28;20657;-50
2021/10/26 05:44:48;;;;;;;43.80;24.53;;;10.90;99.90;;;;;;5046689;28;20206;-51
2021/10/26 05:47:15;;;;;;;50.63;24.43;;;11.00;99.90;;;;;;5050028;28;20612;-51
2021/10/26 05:49:42;;;;;;;44.40;22.83;;;10.80;99.90;;;;;;5048795;28;20278;-52
2021/10/26 05:52:09;;;;;;;42.70;24.03;;;10.70;99.90;;;;;;5051723;28;20257;-52
2021/10/26 05:54:36;;;;;;;45.40;23.00;;;10.70;99.90;;;;;;5040840;28;20754;-52
2021/10/26 05:57:03;;;;;;;48.10;23.83;;;10.70;99.90;;;;;;5044952;28;20197;-52
2021/10/26 05:59:30;;;;;;;51.10;23.33;;;10.70;99.90;;;;;;5044049;28;20229;-51
2021/10/26 06:01:57;;;;;;;44.93;23.73;;;10.70;99.90;;;;;;5045104;28;20610;-52
2021/10/26 06:04:24;;;;;;;45.87;23.17;;;10.60;99.90;;;;;;5042187;28;20362;-51
2021/10/26 06:06:51;;;;;;;39.77;22.07;;;10.70;99.90;;;;;;5040997;28;20200;-51
2021/10/26 06:09:19;;;;;;;48.70;22.00;;;10.60;99.90;;;;;;5045584;28;20317;-51
2021/10/26 06:11:48;;;;;;;46.13;23.03;;;10.60;99.90;;;;;;5046121;28;20207;-51
2021/10/26 06:14:15;;;;;;;44.77;22.57;;;10.60;99.90;;;;;;5044173;28;20291;-51
2021/10/26 06:16:43;;;;;;;39.67;21.40;;;10.60;99.90;;;;;;5041361;28;20587;-51
2021/10/26 06:19:10;;;;;;;43.10;23.20;;;10.60;99.90;;;;;;5048285;28;20258;-51
2021/10/26 06:21:37;;;;;;;45.17;23.97;;;10.60;99.90;;;;;;5042800;28;20567;-51
2021/10/26 06:24:04;;;;;;;37.13;21.77;;;10.70;99.90;;;;;;5049648;28;20230;-51
2021/10/26 06:26:32;;;;;;;38.97;21.93;;;10.60;99.90;;;;;;5051525;28;20208;-51
2021/10/26 06:28:59;;;;;;;40.00;21.77;;;10.60;99.90;;;;;;5042463;28;20614;-51
2021/10/26 06:31:27;;;;;;;41.20;20.40;;;10.60;99.90;;;;;;5045548;28;20189;-51
2021/10/26 06:33:54;;;;;;;41.00;21.13;;;10.50;99.90;;;;;;5043384;28;20254;-52
2021/10/26 06:36:21;;;;;;;40.97;21.57;;;10.60;99.90;;;;;;5044073;28;20224;-51
2021/10/26 06:38:50;;;;;;;37.87;21.50;;;10.60;99.90;;;;;;5040388;28;20223;-51
2021/10/26 06:41:17;;;;;;;43.43;22.77;;;10.70;99.90;;;;;;5042911;28;20209;-51
2021/10/26 06:43:44;;;;;;;38.13;21.90;;;10.70;99.90;;;;;;5047400;28;20285;-51
2021/10/26 06:46:11;;;;;;;47.87;21.13;;;10.70;99.90;;;;;;5046006;28;20277;-51
2021/10/26 06:48:38;;;;;;;38.00;20.30;;;10.80;99.90;;;;;;5045598;28;20269;-51
2021/10/26 06:51:05;;;;;;;43.43;20.57;;;10.80;99.90;;;;;;5049044;28;20211;-51
2021/10/26 06:53:36;;;;;;;43.00;22.03;;;10.80;99.90;;;;;;5049614;28;20227;-51
2021/10/26 06:56:08;;;;;;;45.77;21.90;;;10.80;99.90;;;;;;5035581;28;20288;-52
2021/10/26 06:58:35;;;;;;;45.80;23.40;;;10.70;99.90;;;;;;5049531;28;20257;-51
2021/10/26 07:01:07;;;;;;;42.73;22.20;;;10.60;99.90;;;;;;5037438;28;20290;-51
2021/10/26 07:03:35;;;;;;;47.07;23.17;;;10.60;99.90;;;;;;5046025;28;20461;-51
2021/10/26 07:06:04;;;;;;;47.13;22.90;;;10.60;99.90;;;;;;5047620;28;20346;-51
2021/10/26 07:08:31;;;;;;;43.30;22.80;;;10.50;99.90;;;;;;5041782;28;20219;-51
2021/10/26 07:10:59;;;;;;;40.47;21.30;;;10.50;99.90;;;;;;5045867;28;20345;-52
2021/10/26 07:13:26;;;;;;;44.50;21.40;;;10.50;99.90;;;;;;5038273;28;20202;-50
2021/10/26 07:15:53;;;;;;;47.47;20.90;;;10.70;99.90;;;;;;5037706;28;20210;-50
2021/10/26 07:18:21;;;;;;;46.30;21.37;;;10.50;99.90;;;;;;5042807;28;20221;-50
2021/10/26 07:20:48;;;;;;;46.60;23.30;;;10.60;99.90;;;;;;5041916;28;20232;-50
2021/10/26 07:23:15;;;;;;;41.23;22.40;;;10.70;99.90;;;;;;5048784;28;20227;-50
2021/10/26 07:25:42;;;;;;;49.03;23.17;;;10.70;99.90;;;;;;5032670;28;20680;-50
2021/10/26 07:28:10;;;;;;;38.93;21.73;;;10.70;99.90;;;;;;5029152;28;20208;-50
2021/10/26 07:30:39;;;;;;;48.47;21.73;;;10.70;99.90;;;;;;5029656;28;20584;-50
2021/10/26 07:33:08;;;;;;;45.07;21.43;;;10.70;99.90;;;;;;5040139;28;20232;-50
2021/10/26 07:35:40;;;;;;;48.63;22.53;;;10.70;99.90;;;;;;5030689;28;20197;-50
2021/10/26 07:38:09;;;;;;;50.13;22.87;;;10.80;99.90;;;;;;5038130;28;20270;-50
2021/10/26 07:40:36;;;;;;;43.03;21.03;;;10.70;99.90;;;;;;5031920;28;20192;-50
2021/10/26 07:43:03;;;;;;;45.37;21.07;;;10.70;99.90;;;;;;5030413;28;20229;-50
2021/10/26 07:45:30;;;;;;;46.07;21.07;;;10.70;99.90;;;;;;5029678;28;20207;-50
2021/10/26 07:47:57;;;;;;;43.47;22.13;;;10.90;99.90;;;;;;5030269;28;20246;-50
2021/10/26 07:50:24;;;;;;;48.23;21.90;;;11.00;99.90;;;;;;5042549;28;20275;-50
2021/10/26 07:52:51;;;;;;;41.97;20.87;;;10.90;99.90;;;;;;5037059;28;20266;-50
2021/10/26 07:55:18;;;;;;;44.87;22.87;;;10.80;99.90;;;;;;5035362;28;20239;-50
2021/10/26 07:57:47;;;;;;;48.83;21.27;;;10.80;99.90;;;;;;5028056;28;20211;-50
2021/10/26 08:00:14;;;;;;;43.60;20.63;;;11.00;99.90;;;;;;5038255;28;21054;-50
2021/10/26 08:02:42;;;;;;;40.00;19.63;;;10.80;99.90;;;;;;5047375;28;20235;-50
2021/10/26 08:05:09;;;;;;;45.07;21.73;;;10.80;99.90;;;;;;5035614;28;20240;-50
2021/10/26 08:07:36;;;;;;;43.33;22.03;;;10.80;99.90;;;;;;5042446;28;20240;-50
2021/10/26 08:10:03;;;;;;;37.50;18.90;;;10.90;99.90;;;;;;5041510;28;20703;-50
2021/10/26 08:12:30;;;;;;;37.70;19.70;;;10.90;99.90;;;;;;5041050;28;20567;-51
2021/10/26 08:14:57;;;;;;;33.57;18.03;;;11.10;99.90;;;;;;5034680;28;20563;-51
2021/10/26 08:17:24;;;;;;;34.03;16.97;;;11.10;99.90;;;;;;5037098;28;20645;-50
2021/10/26 08:19:51;;;;;;;34.57;17.53;;;11.00;99.90;;;;;;5032554;28;20251;-50
2021/10/26 08:22:20;;;;;;;28.77;16.10;;;11.10;99.90;;;;;;5038306;28;20294;-50
2021/10/26 08:24:50;;;;;;;27.87;15.97;;;11.00;99.90;;;;;;5040009;28;20594;-50
2021/10/26 08:27:19;;;;;;;24.87;15.17;;;11.10;99.90;;;;;;5038278;28;20555;-50
2021/10/26 08:29:55;;;;;;;25.80;14.80;;;11.20;99.90;;;;;;5041180;28;20215;-50
2021/10/26 08:32:43;;;;;;;28.83;15.00;;;11.20;99.90;;;;;;5042120;28;20225;-50
2021/10/26 08:35:30;;;;;;;25.93;14.00;;;11.10;99.90;;;;;;5055473;28;20283;-50
2021/10/26 08:38:03;;;;;;;21.97;14.07;;;11.30;99.90;;;;;;5046543;28;20263;-50
2021/10/26 08:40:33;;;;;;;23.87;14.23;;;11.40;99.90;;;;;;5048196;28;20195;-50
2021/10/26 08:43:06;;;;;;;24.23;13.70;;;11.50;99.90;;;;;;5046459;28;20268;-50
2021/10/26 08:45:35;;;;;;;21.37;13.17;;;11.40;99.90;;;;;;5051096;28;20725;-50
2021/10/26 08:48:06;;;;;;;21.97;13.50;;;11.20;99.90;;;;;;5040070;28;20976;-50
2021/10/26 08:50:35;;;;;;;27.43;14.43;;;11.20;99.90;;;;;;5038147;28;20267;-50
2021/10/26 08:53:06;;;;;;;21.87;14.17;;;11.20;99.90;;;;;;5037930;28;20193;-50
2021/10/26 08:55:40;;;;;;;20.07;13.80;;;11.20;99.90;;;;;;5040749;28;20196;-50
2021/10/26 08:58:08;;;;;;;25.27;14.40;;;11.40;99.90;;;;;;5046449;28;20199;-50
2021/10/26 09:00:38;;;;;;;22.87;14.57;;;11.60;99.90;;;;;;5040442;28;20225;-50
2021/10/26 09:03:35;;;;;;;19.93;13.00;;;11.70;99.90;;;;;;5041787;28;20196;-50
2021/10/26 09:06:03;;;;;;;19.83;12.83;;;11.60;99.90;;;;;;5036465;28;20647;-50
2021/10/26 09:08:30;;;;;;;22.40;14.60;;;11.40;99.90;;;;;;5034744;28;20605;-50
2021/10/26 09:11:15;;;;;;;25.40;13.87;;;11.40;99.90;;;;;;5040645;28;20239;-50
2021/10/26 09:16:41;;;;;;;21.67;13.33;;;11.50;99.90;;;;;;5038732;28;20246;-50
2021/10/26 09:19:42;;;;;;;19.53;13.60;;;11.60;99.90;;;;;;5034861;28;20223;-50
2021/10/26 09:22:09;;;;;;;23.07;13.83;;;11.60;99.90;;;;;;5028541;28;20207;-50
2021/10/26 09:24:36;;;;;;;20.77;13.77;;;11.80;99.90;;;;;;5036492;28;20203;-50
2021/10/26 09:27:05;;;;;;;29.37;13.57;;;11.70;99.90;;;;;;5035560;28;20645;-51
2021/10/26 09:29:35;;;;;;;20.53;14.00;;;11.80;99.90;;;;;;5034931;28;20307;-51
2021/10/26 09:32:14;;;;;;;19.70;12.83;;;11.70;99.90;;;;;;5032244;28;20242;-51
2021/10/26 09:34:51;;;;;;;23.47;12.37;;;11.70;99.90;;;;;;5037191;28;20571;-51
2021/10/26 09:37:18;;;;;;;21.83;12.77;;;11.70;99.90;;;;;;5034812;28;20733;-51
2021/10/26 09:39:51;;;;;;;21.77;13.30;;;11.80;99.90;;;;;;5034875;28;20196;-51
2021/10/26 09:42:19;;;;;;;19.27;12.33;;;11.90;99.90;;;;;;5031582;28;20236;-51
2021/10/26 09:44:50;;;;;;;21.87;12.17;;;12.00;99.90;;;;;;5035725;28;20633;-51
2021/10/26 09:47:23;;;;;;;20.33;12.83;;;12.00;99.90;;;;;;5035982;28;20211;-51
2021/10/26 09:50:03;;;;;;;18.13;12.27;;;12.20;99.90;;;;;;5035730;28;20216;-51
2021/10/26 09:52:39;;;;;;;16.13;11.20;;;12.30;99.90;;;;;;5032683;28;20209;-51
2021/10/26 09:55:20;;;;;;;17.67;12.07;;;12.30;99.90;;;;;;5035659;28;20822;-50
2021/10/26 09:57:54;;;;;;;19.87;12.00;;;12.20;99.90;;;;;;5033078;28;20549;-51
2021/10/26 10:00:33;;;;;;;18.97;11.67;;;12.30;99.90;;;;;;5032764;28;20201;-51
2021/10/26 10:03:26;;;;;;;17.53;12.00;;;12.30;99.90;;;;;;5034941;28;20205;-51
2021/10/26 10:05:56;;;;;;;19.83;12.43;;;12.30;99.90;;;;;;5033630;28;20213;-51
2021/10/26 10:08:36;;;;;;;21.37;12.07;;;12.40;99.90;;;;;;5036843;28;20193;-51
2021/10/26 10:11:07;;;;;;;16.30;11.13;;;12.40;99.90;;;;;;5032878;28;20218;-51
2021/10/26 10:13:44;;;;;;;21.17;11.90;;;12.40;99.90;;;;;;5033281;28;20212;-51
2021/10/26 10:16:15;;;;;;;22.27;12.50;;;12.50;99.90;;;;;;5034361;28;20825;-50
2021/10/26 10:18:46;;;;;;;15.33;10.80;;;12.50;99.90;;;;;;5033588;28;20304;-51
2021/10/26 10:21:23;;;;;;;18.20;11.90;;;12.50;99.90;;;;;;5034708;28;20216;-50
2021/10/26 10:23:50;;;;;;;18.97;12.33;;;12.50;99.90;;;;;;5032230;28;20699;-51
2021/10/26 10:26:22;;;;;;;18.80;11.27;;;12.40;99.90;;;;;;5033445;28;20248;-50
2021/10/26 10:28:51;;;;;;;17.57;11.80;;;12.50;99.90;;;;;;5035312;28;20268;-50
2021/10/26 10:31:20;;;;;;;17.07;11.10;;;12.60;99.90;;;;;;5034452;28;20279;-50
2021/10/26 10:33:47;;;;;;;18.17;11.37;;;12.60;99.90;;;;;;5028009;28;20217;-50
2021/10/26 10:36:18;;;;;;;16.73;11.20;;;12.70;99.90;;;;;;5026926;28;20989;-51
2021/10/26 10:38:46;;;;;;;23.90;12.17;;;12.70;99.90;;;;;;5035689;28;20208;-51
2021/10/26 10:41:30;;;;;;;17.80;12.03;;;12.70;99.90;;;;;;5036919;28;20335;-51
2021/10/26 10:44:05;;;;;;;19.37;10.73;;;12.70;99.90;;;;;;5033086;28;20571;-51
2021/10/26 10:46:42;;;;;;;19.83;11.00;;;12.80;99.90;;;;;;5032961;28;20207;-51
2021/10/26 10:49:35;;;;;;;16.27;11.07;;;12.80;99.90;;;;;;5032708;28;20200;-51
2021/10/26 10:52:05;;;;;;;19.87;11.07;;;12.80;99.90;;;;;;5030802;28;20626;-51
2021/10/26 10:54:36;;;;;;;16.60;10.60;;;13.10;99.90;;;;;;5036569;28;20210;-51
2021/10/26 10:57:25;;;;;;;16.23;10.53;;;13.00;99.90;;;;;;5032537;28;20338;-51
2021/10/26 11:00:04;;;;;;;18.40;11.43;;;13.10;99.90;;;;;;5032179;28;20216;-51
2021/10/26 11:02:44;;;;;;;17.33;10.97;;;13.30;99.90;;;;;;5030138;28;20290;-51
2021/10/26 11:05:35;;;;;;;21.33;10.23;;;13.30;99.90;;;;;;5030297;28;20223;-51
2021/10/26 11:08:03;;;;;;;15.40;8.87;;;13.50;99.90;;;;;;5031945;28;20211;-51
2021/10/26 11:10:48;;;;;;;15.77;9.37;;;13.70;99.90;;;;;;5030014;28;20244;-51
2021/10/26 11:13:19;;;;;;;18.13;8.83;;;14.10;99.90;;;;;;5031201;28;20607;-50
2021/10/26 11:15:49;;;;;;;17.90;8.57;;;14.30;99.90;;;;;;5031276;28;20308;-51
2021/10/26 11:18:35;;;;;;;13.00;7.87;;;14.50;99.90;;;;;;5028034;28;20679;-51
2021/10/26 11:21:08;;;;;;;15.03;7.33;;;14.20;99.90;;;;;;5027717;28;20295;-51
2021/10/26 11:23:44;;;;;;;12.27;7.83;;;14.40;99.90;;;;;;5032226;28;20296;-51
2021/10/26 11:26:38;;;;;;;10.87;6.73;;;14.60;99.90;;;;;;5031935;28;20280;-51
2021/10/26 11:29:13;;;;;;;11.13;6.10;;;14.70;99.90;;;;;;5032592;28;20729;-51
2021/10/26 11:31:42;;;;;;;11.93;6.20;;;14.50;99.90;;;;;;5031278;28;20312;-51
2021/10/26 11:34:25;;;;;;;12.07;6.63;;;14.40;99.90;;;;;;5031095;28;20230;-51
2021/10/26 11:37:06;;;;;;;10.57;6.63;;;14.40;99.90;;;;;;5030373;28;20330;-51
2021/10/26 11:39:34;;;;;;;11.37;5.73;;;14.30;99.90;;;;;;5031408;28;20247;-51
2021/10/26 11:42:03;;;;;;;14.10;6.50;;;14.30;99.90;;;;;;5030223;28;20216;-51
2021/10/26 11:44:30;;;;;;;13.53;6.00;;;14.40;99.90;;;;;;5033582;28;20964;-51
2021/10/26 11:47:01;;;;;;;12.33;5.53;;;14.60;99.90;;;;;;5030716;28;20234;-51
2021/10/26 11:49:31;;;;;;;8.40;5.80;;;14.80;99.90;;;;;;5031548;28;20646;-51
2021/10/26 11:52:01;;;;;;;9.40;5.50;;;14.90;99.90;;;;;;5031749;28;20211;-51
2021/10/26 11:54:36;;;;;;;7.60;5.43;;;14.70;99.90;;;;;;5032498;28;20261;-51
2021/10/26 11:57:10;;;;;;;13.53;6.30;;;14.80;99.90;;;;;;5029146;28;20262;-51
2021/10/26 11:59:39;;;;;;;9.53;5.37;;;15.10;99.90;;;;;;5028577;28;20198;-51
2021/10/26 12:02:06;;;;;;;11.30;5.23;;;15.30;99.90;;;;;;5031729;28;21028;-51
2021/10/26 12:04:35;;;;;;;10.07;4.93;;;15.50;99.90;;;;;;5032944;28;20250;-51
2021/10/26 12:07:04;;;;;;;13.93;5.80;;;16.00;99.90;;;;;;5029711;28;20645;-51
2021/10/26 12:09:36;;;;;;;12.20;6.20;;;16.10;99.90;;;;;;5030141;28;20698;-51
2021/10/26 12:12:16;;;;;;;9.47;5.63;;;15.50;99.90;;;;;;5031002;28;20958;-51
2021/10/26 12:14:45;;;;;;;7.87;5.00;;;15.40;99.90;;;;;;5030474;28;20535;-51
2021/10/26 12:17:12;;;;;;;14.57;6.37;;;15.30;99.90;;;;;;5031457;28;20672;-51
2021/10/26 12:19:51;;;;;;;14.00;5.23;;;15.20;99.90;;;;;;5031518;28;20517;-51
2021/10/26 12:22:26;;;;;;;9.20;5.10;;;15.10;99.90;;;;;;5031696;28;20220;-51
2021/10/26 12:24:59;;;;;;;11.13;4.97;;;14.90;99.90;;;;;;5031241;28;20808;-54
2021/10/26 12:27:37;;;;;;;8.70;5.07;;;14.90;99.90;;;;;;5029479;28;20292;-51
2021/10/26 12:30:13;;;;;;;6.20;4.90;;;14.80;99.90;;;;;;5030098;28;20220;-51
2021/10/26 12:32:42;;;;;;;10.77;4.50;;;14.90;99.90;;;;;;5030403;28;20664;-51
2021/10/26 12:35:11;;;;;;;7.77;4.67;;;14.80;99.90;;;;;;5030126;28;20618;-51
2021/10/26 12:37:38;;;;;;;7.53;4.37;;;14.80;99.90;;;;;;5029936;28;20229;-51
2021/10/26 12:40:15;;;;;;;5.43;3.53;;;14.80;99.90;;;;;;5029419;28;20333;-51
2021/10/26 12:42:45;;;;;;;5.57;3.60;;;14.80;99.90;;;;;;5030192;28;20200;-51
2021/10/26 12:45:17;;;;;;;6.43;3.70;;;14.80;99.90;;;;;;5032847;28;21038;-51